createdAt,value
2018-02-16T00:00:38.229Z,3.31
2018-02-16T00:01:38.242Z,3.33
2018-02-16T00:02:38.253Z,3.31
2018-02-16T00:03:38.266Z,3.33
2018-02-16T00:04:38.274Z,3.21
2018-02-16T00:05:38.286Z,3.29
2018-02-16T00:06:38.298Z,3.23
2018-02-16T00:07:38.307Z,3.20
2018-02-16T00:08:38.320Z,3.10
2018-02-16T00:09:38.330Z,3.15
2018-02-16T00:10:38.343Z,3.15
2018-02-16T00:11:38.353Z,3.08
2018-02-16T00:12:38.364Z,2.99
2018-02-16T00:13:38.375Z,3.00
2018-02-16T00:14:38.386Z,2.96
2018-02-16T00:15:38.396Z,3.00
2018-02-16T00:16:38.408Z,2.99
2018-02-16T00:17:38.418Z,2.96
2018-02-16T00:18:38.432Z,2.96
2018-02-16T00:19:38.442Z,2.85
2018-02-16T00:20:38.453Z,2.75
2018-02-16T00:21:38.464Z,2.84
2018-02-16T00:22:38.476Z,2.79
2018-02-16T00:23:38.587Z,2.78
2018-02-16T00:24:38.497Z,2.66
2018-02-16T00:25:38.509Z,2.67
2018-02-16T00:26:38.520Z,2.63
2018-02-16T00:27:38.531Z,2.66
2018-02-16T00:28:38.539Z,2.67
2018-02-16T00:29:38.552Z,2.63
2018-02-16T00:30:38.562Z,2.69
2018-02-16T00:31:38.572Z,2.60
2018-02-16T00:32:38.582Z,2.43
2018-02-16T00:33:38.596Z,2.56
2018-02-16T00:34:38.607Z,2.52
2018-02-16T00:35:38.618Z,2.52
2018-02-16T00:36:38.626Z,2.56
2018-02-16T00:37:38.636Z,2.57
2018-02-16T00:38:38.649Z,2.59
2018-02-16T00:39:38.660Z,2.59
2018-02-16T00:40:38.672Z,2.48
2018-02-16T00:41:38.683Z,2.49
2018-02-16T00:42:38.693Z,2.46
2018-02-16T00:43:38.713Z,2.54
2018-02-16T00:44:38.716Z,2.42
2018-02-16T00:45:38.726Z,2.43
2018-02-16T00:46:38.736Z,2.42
2018-02-16T00:47:38.745Z,2.46
2018-02-16T00:48:38.757Z,2.46
2018-02-16T00:49:38.768Z,2.42
2018-02-16T00:50:38.781Z,2.38
2018-02-16T00:51:38.789Z,2.46
2018-02-16T00:52:38.800Z,2.43
2018-02-16T00:53:38.811Z,2.48
2018-02-16T00:54:38.823Z,2.45
2018-02-16T00:55:38.832Z,2.30
2018-02-16T00:56:38.843Z,2.43
2018-02-16T00:57:38.854Z,2.39
2018-02-16T00:58:38.866Z,2.41
2018-02-16T00:59:38.874Z,2.24
2018-02-16T01:00:38.887Z,2.41
2018-02-16T01:01:38.899Z,2.46
2018-02-16T01:02:38.908Z,2.42
2018-02-16T01:03:38.918Z,2.42
2018-02-16T01:04:38.937Z,2.34
2018-02-16T01:05:38.940Z,2.38
2018-02-16T01:06:38.951Z,2.35
2018-02-16T01:07:38.960Z,2.36
2018-02-16T01:08:38.971Z,2.30
2018-02-16T01:09:38.983Z,2.31
2018-02-16T01:10:38.995Z,2.25
2018-02-16T01:11:39.004Z,2.24
2018-02-16T01:12:39.016Z,2.35
2018-02-16T01:13:39.026Z,2.27
2018-02-16T01:14:39.036Z,2.25
2018-02-16T01:15:39.047Z,2.27
2018-02-16T01:16:39.058Z,2.20
2018-02-16T01:17:39.071Z,2.24
2018-02-16T01:18:39.086Z,2.24
2018-02-16T01:19:39.090Z,2.30
2018-02-16T01:20:39.100Z,2.23
2018-02-16T01:21:39.114Z,2.21
2018-02-16T01:22:39.123Z,2.30
2018-02-16T01:23:39.132Z,2.30
2018-02-16T01:24:39.142Z,2.30
2018-02-16T01:25:39.153Z,2.20
2018-02-16T01:26:39.165Z,2.27
2018-02-16T01:27:39.175Z,2.28
2018-02-16T01:28:39.186Z,2.24
2018-02-16T01:29:39.190Z,2.30
2018-02-16T01:30:39.197Z,2.31
2018-02-16T01:31:39.210Z,2.25
2018-02-16T01:32:39.220Z,2.28
2018-02-16T01:33:39.229Z,2.20
2018-02-16T01:34:39.341Z,2.24
2018-02-16T01:35:39.250Z,2.28
2018-02-16T01:36:39.260Z,2.30
2018-02-16T01:37:39.272Z,2.25
2018-02-16T01:38:39.282Z,2.31
2018-02-16T01:39:39.297Z,2.28
2018-02-16T01:40:39.304Z,2.28
2018-02-16T01:41:39.317Z,2.35
2018-02-16T01:42:39.324Z,2.31
2018-02-16T01:43:39.336Z,2.34
2018-02-16T01:44:39.346Z,2.31
2018-02-16T01:45:39.355Z,2.35
2018-02-16T01:46:39.367Z,2.30
2018-02-16T01:47:39.376Z,2.28
2018-02-16T01:48:39.387Z,2.43
2018-02-16T01:49:39.397Z,2.42
2018-02-16T01:50:39.407Z,2.27
2018-02-16T01:51:39.417Z,2.42
2018-02-16T01:52:39.428Z,2.41
2018-02-16T01:53:39.440Z,2.42
2018-02-16T01:54:39.450Z,2.49
2018-02-16T01:55:39.476Z,2.49
2018-02-16T01:56:39.468Z,2.48
2018-02-16T01:57:39.480Z,2.42
2018-02-16T01:58:39.493Z,2.39
2018-02-16T01:59:39.500Z,2.41
2018-02-16T02:00:39.511Z,2.42
2018-02-16T02:01:39.520Z,2.48
2018-02-16T02:02:39.532Z,2.45
2018-02-16T02:03:39.542Z,2.45
2018-02-16T02:04:39.551Z,2.46
2018-02-16T02:05:39.564Z,2.42
2018-02-16T02:06:39.572Z,2.57
2018-02-16T02:07:39.583Z,2.61
2018-02-16T02:08:39.593Z,2.57
2018-02-16T02:09:39.603Z,2.54
2018-02-16T02:10:39.615Z,2.67
2018-02-16T02:11:39.621Z,2.63
2018-02-16T02:12:39.635Z,2.54
2018-02-16T02:13:39.645Z,2.59
2018-02-16T02:14:39.657Z,2.67
2018-02-16T02:15:39.666Z,2.53
2018-02-16T02:16:39.677Z,2.59
2018-02-16T02:17:39.687Z,2.42
2018-02-16T02:18:39.697Z,2.43
2018-02-16T02:19:39.707Z,2.45
2018-02-16T02:20:39.717Z,2.43
2018-02-16T02:21:39.729Z,2.49
2018-02-16T02:22:39.739Z,2.49
2018-02-16T02:23:39.754Z,2.54
2018-02-16T02:24:39.761Z,2.54
2018-02-16T02:25:39.770Z,2.49
2018-02-16T02:26:39.785Z,2.53
2018-02-16T02:27:39.794Z,2.49
2018-02-16T02:28:39.809Z,2.46
2018-02-16T02:29:39.812Z,2.49
2018-02-16T02:30:39.827Z,2.46
2018-02-16T02:31:39.837Z,2.41
2018-02-16T02:32:39.843Z,2.38
2018-02-16T02:33:39.854Z,2.41
2018-02-16T02:34:39.867Z,2.49
2018-02-16T02:35:39.874Z,2.41
2018-02-16T02:36:39.885Z,2.48
2018-02-16T02:37:39.896Z,2.48
2018-02-16T02:38:39.907Z,2.42
2018-02-16T02:39:39.916Z,2.39
2018-02-16T02:40:39.928Z,2.52
2018-02-16T02:41:39.939Z,2.43
2018-02-16T02:42:39.948Z,2.42
2018-02-16T02:43:39.960Z,2.46
2018-02-16T02:44:39.968Z,2.42
2018-02-16T02:45:39.980Z,2.54
2018-02-16T02:46:39.990Z,2.54
2018-02-16T02:47:40.000Z,2.46
2018-02-16T02:48:40.012Z,2.43
2018-02-16T02:49:40.026Z,2.45
2018-02-16T02:50:40.035Z,2.45
2018-02-16T02:51:40.041Z,2.41
2018-02-16T02:52:40.053Z,2.49
2018-02-16T02:53:40.064Z,2.46
2018-02-16T02:54:40.074Z,2.48
2018-02-16T02:55:40.072Z,2.46
2018-02-16T02:56:40.082Z,2.45
2018-02-16T02:57:40.093Z,2.45
2018-02-16T02:58:40.104Z,2.57
2018-02-16T02:59:40.113Z,2.46
2018-02-16T03:00:40.124Z,2.54
2018-02-16T03:01:40.134Z,2.48
2018-02-16T03:02:40.145Z,2.57
2018-02-16T03:03:40.155Z,2.61
2018-02-16T03:04:40.165Z,2.57
2018-02-16T03:05:40.177Z,2.52
2018-02-16T03:06:40.187Z,2.57
2018-02-16T03:07:40.197Z,2.57
2018-02-16T03:08:40.205Z,2.48
2018-02-16T03:09:40.217Z,2.48
2018-02-16T03:10:40.229Z,2.60
2018-02-16T03:11:40.239Z,2.52
2018-02-16T03:12:40.251Z,2.49
2018-02-16T03:13:40.260Z,2.60
2018-02-16T03:14:40.271Z,2.56
2018-02-16T03:15:40.305Z,2.49
2018-02-16T03:16:40.291Z,2.52
2018-02-16T03:17:40.302Z,2.46
2018-02-16T03:18:40.313Z,2.41
2018-02-16T03:19:40.323Z,2.48
2018-02-16T03:20:40.333Z,2.42
2018-02-16T03:21:40.343Z,2.45
2018-02-16T03:22:40.355Z,2.54
2018-02-16T03:23:40.364Z,2.41
2018-02-16T03:24:40.376Z,2.31
2018-02-16T03:25:40.384Z,2.31
2018-02-16T03:26:40.396Z,2.36
2018-02-16T03:27:40.406Z,2.35
2018-02-16T03:28:40.415Z,2.42
2018-02-16T03:29:40.426Z,2.45
2018-02-16T03:30:40.438Z,2.30
2018-02-16T03:31:40.448Z,2.31
2018-02-16T03:32:40.456Z,2.42
2018-02-16T03:33:40.469Z,2.38
2018-02-16T03:34:40.480Z,2.42
2018-02-16T03:35:40.489Z,2.30
2018-02-16T03:36:40.499Z,2.36
2018-02-16T03:37:40.510Z,2.39
2018-02-16T03:38:40.520Z,2.31
2018-02-16T03:39:40.531Z,2.30
2018-02-16T03:40:40.542Z,2.31
2018-02-16T03:41:40.552Z,2.34
2018-02-16T03:42:40.562Z,2.41
2018-02-16T03:43:40.571Z,2.30
2018-02-16T03:44:40.583Z,2.30
2018-02-16T03:45:40.593Z,2.30
2018-02-16T03:46:40.603Z,2.35
2018-02-16T03:47:40.614Z,2.43
2018-02-16T03:48:40.626Z,2.34
2018-02-16T03:49:40.634Z,2.30
2018-02-16T03:50:40.646Z,2.28
2018-02-16T03:51:40.654Z,2.34
2018-02-16T03:52:40.664Z,2.23
2018-02-16T03:53:40.676Z,2.34
2018-02-16T03:54:40.686Z,2.23
2018-02-16T03:55:40.696Z,2.24
2018-02-16T03:56:40.707Z,2.23
2018-02-16T03:57:40.718Z,2.28
2018-02-16T03:58:40.730Z,2.24
2018-02-16T03:59:40.737Z,2.17
2018-02-16T04:00:40.748Z,2.24
2018-02-16T04:01:40.759Z,2.30
2018-02-16T04:02:40.768Z,2.30
2018-02-16T04:03:40.779Z,2.31
2018-02-16T04:04:40.789Z,2.38
2018-02-16T04:05:40.799Z,2.34
2018-02-16T04:06:40.810Z,2.31
2018-02-16T04:07:40.821Z,2.42
2018-02-16T04:08:40.831Z,2.27
2018-02-16T04:09:40.841Z,2.31
2018-02-16T04:10:40.852Z,2.39
2018-02-16T04:11:40.862Z,2.36
2018-02-16T04:12:40.872Z,2.36
2018-02-16T04:13:40.882Z,2.34
2018-02-16T04:14:40.892Z,2.42
2018-02-16T04:15:40.902Z,2.34
2018-02-16T04:16:40.912Z,2.35
2018-02-16T04:17:40.924Z,2.24
2018-02-16T04:18:40.934Z,2.30
2018-02-16T04:19:40.944Z,2.23
2018-02-16T04:20:40.953Z,2.31
2018-02-16T04:21:40.966Z,2.34
2018-02-16T04:22:40.975Z,2.34
2018-02-16T04:23:41.085Z,2.35
2018-02-16T04:24:40.997Z,2.28
2018-02-16T04:25:41.007Z,2.31
2018-02-16T04:26:41.016Z,2.30
2018-02-16T04:27:41.028Z,2.28
2018-02-16T04:28:41.036Z,2.31
2018-02-16T04:29:41.049Z,2.28
2018-02-16T04:30:41.078Z,2.25
2018-02-16T04:31:41.081Z,2.30
2018-02-16T04:32:41.090Z,2.30
2018-02-16T04:33:41.101Z,2.21
2018-02-16T04:34:41.111Z,2.24
2018-02-16T04:35:41.120Z,2.30
2018-02-16T04:36:41.133Z,2.21
2018-02-16T04:37:41.143Z,2.30
2018-02-16T04:38:41.153Z,2.27
2018-02-16T04:39:41.162Z,2.25
2018-02-16T04:40:41.174Z,2.30
2018-02-16T04:41:41.183Z,2.23
2018-02-16T04:42:41.196Z,2.23
2018-02-16T04:43:41.204Z,2.24
2018-02-16T04:44:41.215Z,2.28
2018-02-16T04:45:41.225Z,2.20
2018-02-16T04:46:41.237Z,2.20
2018-02-16T04:47:41.246Z,2.25
2018-02-16T04:48:41.256Z,2.18
2018-02-16T04:49:41.268Z,2.21
2018-02-16T04:50:41.282Z,2.27
2018-02-16T04:51:41.287Z,2.25
2018-02-16T04:52:41.297Z,2.20
2018-02-16T04:53:41.312Z,2.30
2018-02-16T04:54:41.320Z,2.20
2018-02-16T04:55:41.330Z,2.18
2018-02-16T04:56:41.344Z,2.25
2018-02-16T04:57:41.349Z,2.30
2018-02-16T04:58:41.362Z,2.24
2018-02-16T04:59:41.373Z,2.20
2018-02-16T05:00:41.381Z,2.23
2018-02-16T05:01:41.391Z,2.21
2018-02-16T05:02:41.503Z,2.23
2018-02-16T05:03:41.412Z,2.21
2018-02-16T05:04:41.421Z,2.18
2018-02-16T05:05:41.434Z,2.23
2018-02-16T05:06:41.443Z,2.20
2018-02-16T05:07:41.453Z,2.27
2018-02-16T05:08:41.465Z,2.16
2018-02-16T05:09:41.473Z,2.17
2018-02-16T05:10:41.483Z,2.16
2018-02-16T05:11:41.494Z,2.14
2018-02-16T05:12:41.506Z,2.14
2018-02-16T05:13:41.519Z,2.10
2018-02-16T05:14:41.527Z,2.10
2018-02-16T05:15:41.534Z,2.09
2018-02-16T05:16:41.546Z,2.12
2018-02-16T05:17:41.556Z,2.10
2018-02-16T05:18:41.567Z,2.09
2018-02-16T05:19:41.575Z,2.12
2018-02-16T05:20:41.587Z,2.12
2018-02-16T05:21:41.597Z,2.09
2018-02-16T05:22:41.607Z,2.12
2018-02-16T05:23:41.616Z,2.10
2018-02-16T05:24:41.628Z,2.21
2018-02-16T05:25:41.638Z,2.12
2018-02-16T05:26:41.650Z,2.14
2018-02-16T05:27:41.658Z,2.14
2018-02-16T05:28:41.670Z,2.07
2018-02-16T05:29:41.680Z,2.07
2018-02-16T05:30:41.687Z,2.16
2018-02-16T05:31:41.698Z,2.23
2018-02-16T05:32:41.710Z,2.16
2018-02-16T05:33:41.724Z,2.17
2018-02-16T05:34:41.729Z,2.21
2018-02-16T05:35:41.739Z,2.20
2018-02-16T05:36:41.748Z,2.21
2018-02-16T05:37:41.761Z,2.20
2018-02-16T05:38:41.771Z,2.23
2018-02-16T05:39:41.780Z,2.20
2018-02-16T05:40:41.790Z,2.23
2018-02-16T05:41:41.803Z,2.17
2018-02-16T05:42:41.811Z,2.18
2018-02-16T05:43:41.821Z,2.21
2018-02-16T05:44:41.832Z,2.20
2018-02-16T05:45:41.843Z,2.23
2018-02-16T05:46:41.854Z,2.16
2018-02-16T05:47:41.862Z,2.20
2018-02-16T05:48:41.875Z,2.21
2018-02-16T05:49:41.883Z,2.16
2018-02-16T05:50:41.894Z,2.24
2018-02-16T05:51:41.903Z,2.20
2018-02-16T05:52:41.913Z,2.18
2018-02-16T05:53:41.927Z,2.20
2018-02-16T05:54:41.934Z,2.25
2018-02-16T05:55:41.944Z,2.17
2018-02-16T05:56:41.954Z,2.23
2018-02-16T05:57:41.964Z,2.23
2018-02-16T05:58:41.973Z,2.09
2018-02-16T05:59:41.984Z,2.21
2018-02-16T06:00:41.995Z,2.18
2018-02-16T06:01:42.004Z,2.23
2018-02-16T06:02:42.015Z,2.17
2018-02-16T06:03:42.025Z,2.20
2018-02-16T06:04:42.035Z,2.16
2018-02-16T06:05:42.046Z,2.20
2018-02-16T06:06:42.057Z,2.23
2018-02-16T06:07:42.069Z,2.23
2018-02-16T06:08:42.076Z,2.20
2018-02-16T06:09:42.086Z,2.20
2018-02-16T06:10:42.098Z,2.21
2018-02-16T06:11:42.108Z,2.14
2018-02-16T06:12:42.117Z,2.20
2018-02-16T06:13:42.127Z,2.16
2018-02-16T06:14:42.137Z,2.21
2018-02-16T06:15:42.147Z,2.21
2018-02-16T06:16:42.161Z,2.16
2018-02-16T06:17:42.168Z,2.18
2018-02-16T06:18:42.178Z,2.14
2018-02-16T06:19:42.187Z,2.12
2018-02-16T06:20:42.196Z,2.07
2018-02-16T06:21:42.208Z,2.14
2018-02-16T06:22:42.218Z,2.09
2018-02-16T06:23:42.230Z,2.12
2018-02-16T06:24:42.239Z,2.16
2018-02-16T06:25:42.251Z,2.18
2018-02-16T06:26:42.259Z,2.16
2018-02-16T06:27:42.267Z,2.16
2018-02-16T06:28:42.279Z,2.21
2018-02-16T06:29:42.288Z,2.20
2018-02-16T06:30:42.302Z,2.21
2018-02-16T06:31:42.310Z,2.21
2018-02-16T06:32:42.319Z,2.20
2018-02-16T06:33:42.330Z,2.10
2018-02-16T06:34:42.342Z,2.17
2018-02-16T06:35:42.350Z,2.17
2018-02-16T06:36:42.361Z,2.14
2018-02-16T06:37:42.398Z,2.20
2018-02-16T06:38:42.381Z,2.14
2018-02-16T06:39:42.391Z,2.10
2018-02-16T06:40:42.401Z,2.14
2018-02-16T06:41:42.411Z,2.18
2018-02-16T06:42:42.422Z,2.16
2018-02-16T06:43:42.432Z,2.16
2018-02-16T06:44:42.440Z,2.10
2018-02-16T06:45:42.451Z,2.17
2018-02-16T06:46:42.461Z,2.14
2018-02-16T06:47:42.472Z,2.14
2018-02-16T06:48:42.482Z,2.16
2018-02-16T06:49:42.492Z,2.14
2018-02-16T06:50:42.503Z,2.07
2018-02-16T06:51:42.513Z,2.21
2018-02-16T06:52:42.522Z,2.23
2018-02-16T06:53:42.534Z,2.21
2018-02-16T06:54:42.547Z,2.20
2018-02-16T06:55:42.553Z,2.23
2018-02-16T06:56:42.564Z,2.17
2018-02-16T06:57:42.573Z,2.12
2018-02-16T06:58:42.585Z,2.23
2018-02-16T06:59:42.593Z,2.14
2018-02-16T07:00:42.603Z,2.27
2018-02-16T07:01:42.615Z,2.20
2018-02-16T07:02:42.624Z,2.14
2018-02-16T07:03:42.634Z,2.23
2018-02-16T07:04:42.643Z,2.16
2018-02-16T07:05:42.657Z,2.23
2018-02-16T07:06:42.665Z,2.14
2018-02-16T07:07:42.674Z,2.14
2018-02-16T07:08:42.687Z,2.16
2018-02-16T07:09:42.697Z,2.17
2018-02-16T07:10:42.706Z,2.14
2018-02-16T07:11:42.716Z,2.14
2018-02-16T07:12:42.732Z,2.18
2018-02-16T07:13:42.724Z,2.18
2018-02-16T07:14:42.735Z,2.14
2018-02-16T07:15:42.754Z,2.12
2018-02-16T07:16:42.766Z,2.06
2018-02-16T07:17:42.764Z,2.20
2018-02-16T07:18:42.776Z,2.20
2018-02-16T07:19:42.786Z,2.16
2018-02-16T07:20:42.794Z,2.14
2018-02-16T07:21:42.807Z,2.09
2018-02-16T07:22:42.817Z,2.17
2018-02-16T07:23:42.837Z,2.10
2018-02-16T07:24:42.847Z,2.18
2018-02-16T07:25:42.846Z,2.10
2018-02-16T07:26:42.856Z,2.21
2018-02-16T07:27:42.880Z,2.18
2018-02-16T07:28:42.877Z,2.18
2018-02-16T07:29:42.887Z,2.14
2018-02-16T07:30:42.897Z,2.24
2018-02-16T07:31:42.905Z,2.25
2018-02-16T07:32:42.927Z,2.20
2018-02-16T07:33:42.927Z,2.23
2018-02-16T07:34:42.939Z,2.25
2018-02-16T07:35:42.947Z,2.17
2018-02-16T07:36:42.964Z,2.28
2018-02-16T07:37:43.150Z,2.31
2018-02-16T07:38:42.992Z,2.31
2018-02-16T07:40:43.057Z,2.41
2018-02-16T07:41:43.006Z,2.28
2018-02-16T07:42:43.018Z,2.31
2018-02-16T07:43:43.038Z,2.39
2018-02-16T07:44:43.049Z,2.30
2018-02-16T07:45:43.058Z,2.42
2018-02-16T07:46:43.058Z,2.27
2018-02-16T07:47:43.068Z,2.34
2018-02-16T07:48:43.091Z,2.34
2018-02-16T07:49:43.130Z,2.36
2018-02-16T07:50:43.110Z,2.27
2018-02-16T07:51:43.108Z,2.45
2018-02-16T07:52:43.130Z,2.52
2018-02-16T07:53:43.128Z,2.42
2018-02-16T07:54:43.140Z,2.45
2018-02-16T07:55:43.161Z,2.46
2018-02-16T07:56:43.171Z,2.48
2018-02-16T07:57:43.171Z,2.57
2018-02-16T07:58:43.183Z,2.56
2018-02-16T07:59:43.201Z,2.63
2018-02-16T08:00:43.214Z,2.59
2018-02-16T08:01:43.212Z,2.67
2018-02-16T08:02:43.234Z,2.66
2018-02-16T08:03:43.232Z,2.67
2018-02-16T08:04:43.253Z,2.64
2018-02-16T08:05:43.256Z,2.64
2018-02-16T08:06:43.265Z,2.66
2018-02-16T08:07:43.274Z,2.61
2018-02-16T08:08:43.295Z,2.69
2018-02-16T08:09:43.296Z,2.64
2018-02-16T08:10:43.318Z,2.71
2018-02-16T08:11:43.315Z,2.77
2018-02-16T08:12:43.325Z,2.74
2018-02-16T08:13:43.337Z,2.77
2018-02-16T08:14:43.359Z,2.78
2018-02-16T08:15:43.518Z,2.77
2018-02-16T08:16:43.380Z,2.75
2018-02-16T08:17:43.377Z,2.89
2018-02-16T08:18:43.392Z,2.95
2018-02-16T08:19:43.410Z,2.87
2018-02-16T08:20:43.410Z,2.95
2018-02-16T08:21:43.421Z,2.90
2018-02-16T08:22:43.431Z,2.89
2018-02-16T08:23:43.443Z,2.99
2018-02-16T08:24:43.462Z,2.99
2018-02-16T08:25:43.466Z,2.99
2018-02-16T08:26:43.486Z,3.02
2018-02-16T08:27:44.152Z,2.97
2018-02-16T08:28:43.503Z,2.97
2018-02-16T08:29:43.504Z,2.99
2018-02-16T08:30:43.514Z,2.96
2018-02-16T08:31:43.539Z,3.02
2018-02-16T08:32:43.536Z,2.99
2018-02-16T08:33:43.562Z,3.13
2018-02-16T08:34:43.569Z,3.00
2018-02-16T08:35:43.567Z,3.13
2018-02-16T08:36:43.578Z,3.14
2018-02-16T08:37:43.589Z,3.17
2018-02-16T08:38:43.600Z,3.18
2018-02-16T08:39:43.653Z,3.15
2018-02-16T08:40:43.620Z,3.29
2018-02-16T08:41:43.631Z,3.24
2018-02-16T08:42:43.642Z,3.33
2018-02-16T08:43:43.652Z,3.33
2018-02-16T08:44:43.676Z,3.33
2018-02-16T08:45:43.687Z,3.31
2018-02-16T08:46:43.695Z,3.29
2018-02-16T08:47:43.695Z,3.39
2018-02-16T08:48:43.706Z,3.33
2018-02-16T08:49:43.728Z,3.31
2018-02-16T08:50:43.740Z,3.48
2018-02-16T08:51:43.737Z,3.42
2018-02-16T08:52:43.749Z,3.40
2018-02-16T08:54:43.771Z,3.51
2018-02-16T08:55:43.791Z,3.54
2018-02-16T08:56:43.797Z,3.62
2018-02-16T08:57:43.803Z,3.66
2018-02-16T08:58:43.813Z,3.57
2018-02-16T08:59:43.828Z,3.55
2018-02-16T09:00:43.833Z,3.78
2018-02-16T09:01:43.857Z,3.73
2018-02-16T09:02:43.867Z,3.72
2018-02-16T09:03:43.866Z,3.73
2018-02-16T09:04:43.878Z,3.70
2018-02-16T09:05:43.901Z,3.73
2018-02-16T09:06:43.899Z,3.76
2018-02-16T09:07:43.910Z,3.72
2018-02-16T09:08:43.921Z,3.73
2018-02-16T09:09:43.934Z,3.78
2018-02-16T09:10:43.944Z,3.70
2018-02-16T09:11:43.965Z,3.79
2018-02-16T09:12:43.964Z,3.80
2018-02-16T09:13:43.976Z,3.80
2018-02-16T09:14:43.987Z,3.80
2018-02-16T09:15:44.007Z,3.94
2018-02-16T09:16:44.008Z,3.97
2018-02-16T09:17:44.030Z,4.00
2018-02-16T09:18:44.031Z,3.96
2018-02-16T09:19:44.053Z,4.02
2018-02-16T09:20:44.052Z,4.09
2018-02-16T09:21:44.063Z,4.06
2018-02-16T09:22:44.074Z,4.11
2018-02-16T09:23:44.123Z,4.16
2018-02-16T09:24:44.096Z,4.09
2018-02-16T09:25:44.107Z,4.06
2018-02-16T09:26:44.118Z,3.98
2018-02-16T09:27:44.130Z,4.04
2018-02-16T09:28:44.149Z,4.16
2018-02-16T09:29:44.150Z,4.12
2018-02-16T09:30:45.777Z,4.15
2018-02-16T09:31:44.170Z,4.11
2018-02-16T09:32:44.185Z,4.22
2018-02-16T09:33:44.194Z,4.18
2018-02-16T09:34:44.218Z,4.24
2018-02-16T09:35:44.215Z,4.33
2018-02-16T09:36:44.227Z,4.29
2018-02-16T09:37:45.174Z,4.32
2018-02-16T09:38:44.262Z,4.42
2018-02-16T09:39:44.261Z,4.34
2018-02-16T09:40:44.272Z,4.45
2018-02-16T09:41:44.284Z,4.36
2018-02-16T09:42:44.295Z,4.37
2018-02-16T09:43:44.308Z,4.42
2018-02-16T09:44:44.317Z,4.51
2018-02-16T09:45:44.331Z,4.65
2018-02-16T09:46:44.351Z,4.67
2018-02-16T09:47:44.362Z,4.63
2018-02-16T09:48:44.361Z,4.77
2018-02-16T09:49:44.384Z,4.80
2018-02-16T09:50:44.388Z,4.78
2018-02-16T09:51:44.407Z,4.80
2018-02-16T09:52:44.406Z,4.80
2018-02-16T09:53:44.418Z,4.88
2018-02-16T09:54:44.430Z,4.92
2018-02-16T09:55:44.442Z,4.92
2018-02-16T09:56:44.453Z,4.92
2018-02-16T09:57:44.464Z,4.96
2018-02-16T09:58:44.476Z,4.97
2018-02-16T09:59:44.487Z,4.94
2018-02-16T10:00:44.498Z,4.97
2018-02-16T10:01:44.522Z,5.02
2018-02-16T10:02:44.524Z,5.00
2018-02-16T10:03:44.533Z,5.12
2018-02-16T10:04:44.545Z,4.96
2018-02-16T10:05:44.556Z,4.89
2018-02-16T10:06:44.568Z,5.00
2018-02-16T10:07:44.579Z,4.96
2018-02-16T10:08:44.591Z,4.99
2018-02-16T10:09:44.700Z,4.92
2018-02-16T10:10:44.629Z,5.04
2018-02-16T10:11:44.636Z,5.00
2018-02-16T10:12:44.639Z,5.03
2018-02-16T10:13:44.648Z,4.89
2018-02-16T10:14:44.722Z,4.86
2018-02-16T10:15:44.673Z,5.10
2018-02-16T10:16:44.683Z,5.10
2018-02-16T10:17:44.695Z,5.10
2018-02-16T10:18:44.705Z,5.13
2018-02-16T10:19:44.721Z,5.10
2018-02-16T10:20:44.898Z,5.12
2018-02-16T10:21:44.752Z,5.17
2018-02-16T10:22:44.754Z,5.07
2018-02-16T10:23:44.823Z,5.13
2018-02-16T10:24:44.773Z,5.22
2018-02-16T10:25:44.785Z,5.21
2018-02-16T10:26:44.808Z,5.22
2018-02-16T10:27:44.818Z,5.31
2018-02-16T10:28:44.820Z,5.39
2018-02-16T10:29:44.832Z,5.48
2018-02-16T10:30:44.856Z,5.57
2018-02-16T10:31:44.854Z,5.68
2018-02-16T10:32:44.865Z,5.79
2018-02-16T10:33:44.890Z,5.79
2018-02-16T10:34:44.894Z,5.75
2018-02-16T10:35:44.902Z,5.82
2018-02-16T10:36:44.944Z,5.96
2018-02-16T10:37:45.622Z,5.99
2018-02-16T10:38:44.955Z,5.85
2018-02-16T10:39:45.671Z,5.85
2018-02-16T10:40:44.975Z,5.83
2018-02-16T10:41:44.976Z,5.83
2018-02-16T10:42:44.989Z,5.71
2018-02-16T10:43:44.999Z,5.68
2018-02-16T10:44:45.012Z,5.58
2018-02-16T10:45:45.024Z,5.63
2018-02-16T10:46:45.035Z,5.60
2018-02-16T10:47:45.048Z,5.53
2018-02-16T10:48:45.058Z,5.48
2018-02-16T10:49:45.097Z,5.46
2018-02-16T10:50:45.096Z,5.33
2018-02-16T10:51:45.184Z,5.33
2018-02-16T10:52:45.117Z,5.28
2018-02-16T10:53:45.122Z,5.35
2018-02-16T10:54:45.133Z,5.28
2018-02-16T10:55:45.143Z,5.28
2018-02-16T10:56:47.036Z,5.35
2018-02-16T10:57:45.767Z,5.45
2018-02-16T10:58:46.021Z,5.51
2018-02-16T10:59:45.953Z,5.58
2018-02-16T11:02:45.227Z,5.67
2018-02-16T11:03:45.236Z,5.68
2018-02-16T11:04:45.249Z,5.68
2018-02-16T11:05:45.261Z,5.67
2018-02-16T11:06:45.276Z,5.67
2018-02-16T11:07:45.296Z,5.72
2018-02-16T11:08:45.297Z,5.72
2018-02-16T11:09:45.321Z,5.74
2018-02-16T11:10:45.331Z,5.67
2018-02-16T11:11:45.343Z,5.71
2018-02-16T11:12:45.344Z,5.72
2018-02-16T11:13:45.366Z,5.71
2018-02-16T11:14:45.378Z,5.71
2018-02-16T11:15:45.375Z,5.67
2018-02-16T11:16:45.403Z,5.67
2018-02-16T11:17:45.515Z,5.75
2018-02-16T11:18:45.415Z,5.85
2018-02-16T11:19:45.423Z,6.12
2018-02-16T11:20:45.897Z,6.25
2018-02-16T11:21:45.452Z,6.51
2018-02-16T11:22:45.474Z,6.46
2018-02-16T11:23:45.522Z,6.56
2018-02-16T11:24:45.495Z,6.55
2018-02-16T11:25:45.497Z,6.58
2018-02-16T11:26:45.510Z,6.55
2018-02-16T11:27:45.622Z,6.48
2018-02-16T11:28:45.538Z,6.40
2018-02-16T11:29:45.548Z,6.33
2018-02-16T11:30:45.559Z,6.40
2018-02-16T11:31:45.574Z,6.33
2018-02-16T11:32:45.584Z,6.12
2018-02-16T11:33:45.596Z,6.09
2018-02-16T11:34:45.619Z,6.14
2018-02-16T11:35:45.624Z,6.15
2018-02-16T11:36:45.633Z,6.33
2018-02-16T11:37:45.645Z,6.41
2018-02-16T11:38:45.658Z,6.46
2018-02-16T11:39:45.669Z,6.46
2018-02-16T11:40:45.683Z,6.62
2018-02-16T11:41:45.695Z,6.74
2018-02-16T11:42:45.708Z,6.92
2018-02-16T11:43:45.720Z,6.99
2018-02-16T11:44:45.732Z,6.99
2018-02-16T11:45:45.745Z,6.94
2018-02-16T11:46:45.758Z,6.92
2018-02-16T11:47:45.773Z,6.99
2018-02-16T11:48:45.788Z,7.03
2018-02-16T11:49:45.798Z,7.06
2018-02-16T11:50:45.809Z,7.10
2018-02-16T11:51:45.821Z,7.13
2018-02-16T11:52:45.834Z,7.06
2018-02-16T11:53:45.847Z,7.15
2018-02-16T11:54:45.906Z,7.16
2018-02-16T11:55:45.872Z,7.13
2018-02-16T11:56:45.886Z,7.05
2018-02-16T11:57:45.916Z,6.99
2018-02-16T11:58:45.912Z,6.88
2018-02-16T11:59:45.923Z,6.88
2018-02-16T12:00:45.937Z,6.97
2018-02-16T12:01:45.949Z,6.89
2018-02-16T12:02:45.962Z,7.03
2018-02-16T12:03:45.987Z,7.05
2018-02-16T12:04:45.990Z,7.15
2018-02-16T12:05:46.013Z,7.24
2018-02-16T12:06:46.025Z,7.34
2018-02-16T12:07:46.026Z,7.34
2018-02-16T12:08:46.050Z,7.55
2018-02-16T12:09:46.052Z,7.46
2018-02-16T12:10:46.076Z,7.43
2018-02-16T12:11:46.086Z,7.39
2018-02-16T12:12:46.100Z,7.27
2018-02-16T12:13:46.105Z,7.23
2018-02-16T12:14:46.116Z,7.27
2018-02-16T12:15:46.130Z,7.35
2018-02-16T12:16:46.142Z,7.23
2018-02-16T12:17:46.154Z,7.45
2018-02-16T12:18:46.169Z,7.49
2018-02-16T12:19:46.181Z,7.53
2018-02-16T12:20:46.194Z,7.55
2018-02-16T12:21:46.206Z,7.69
2018-02-16T12:22:46.219Z,7.82
2018-02-16T12:23:46.231Z,7.89
2018-02-16T12:24:46.245Z,7.93
2018-02-16T12:25:46.256Z,7.92
2018-02-16T12:26:46.271Z,8.01
2018-02-16T12:27:46.284Z,8.02
2018-02-16T12:28:46.297Z,8.28
2018-02-16T12:29:46.314Z,8.22
2018-02-16T12:30:46.324Z,8.22
2018-02-16T12:31:46.337Z,8.02
2018-02-16T12:32:46.350Z,8.00
2018-02-16T12:33:46.363Z,7.98
2018-02-16T12:34:46.377Z,8.05
2018-02-16T12:35:46.434Z,8.00
2018-02-16T12:36:46.404Z,7.97
2018-02-16T12:37:46.417Z,7.97
2018-02-16T12:38:46.431Z,7.97
2018-02-16T12:39:46.445Z,7.72
2018-02-16T12:40:46.457Z,7.64
2018-02-16T12:41:46.471Z,7.60
2018-02-16T12:42:46.485Z,7.68
2018-02-16T12:43:46.498Z,7.67
2018-02-16T12:44:46.511Z,7.55
2018-02-16T12:45:46.523Z,7.46
2018-02-16T12:46:46.539Z,7.43
2018-02-16T12:47:46.551Z,7.25
2018-02-16T12:48:46.564Z,7.21
2018-02-16T12:49:46.579Z,7.15
2018-02-16T12:50:46.591Z,7.03
2018-02-16T12:51:46.603Z,7.05
2018-02-16T12:52:46.617Z,7.07
2018-02-16T12:53:46.630Z,7.05
2018-02-16T12:54:46.644Z,7.05
2018-02-16T12:55:46.657Z,7.10
2018-02-16T12:56:46.669Z,7.06
2018-02-16T12:57:46.683Z,7.13
2018-02-16T12:58:46.696Z,7.30
2018-02-16T12:59:46.709Z,7.43
2018-02-16T13:00:46.723Z,7.55
2018-02-16T13:01:46.735Z,7.64
2018-02-16T13:02:46.749Z,7.71
2018-02-16T13:03:46.762Z,7.71
2018-02-16T13:04:46.775Z,7.67
2018-02-16T13:05:46.788Z,7.60
2018-02-16T13:06:46.803Z,7.68
2018-02-16T13:07:46.813Z,7.77
2018-02-16T13:08:46.828Z,7.87
2018-02-16T13:09:46.841Z,7.93
2018-02-16T13:10:46.855Z,7.89
2018-02-16T13:11:46.868Z,7.74
2018-02-16T13:12:46.881Z,7.77
2018-02-16T13:13:46.897Z,7.77
2018-02-16T13:14:46.908Z,7.89
2018-02-16T13:15:46.921Z,7.95
2018-02-16T13:16:46.933Z,7.98
2018-02-16T13:17:46.947Z,8.07
2018-02-16T13:18:46.963Z,8.00
2018-02-16T13:19:46.975Z,8.05
2018-02-16T13:20:46.988Z,7.98
2018-02-16T13:21:47.002Z,8.00
2018-02-16T13:22:47.048Z,7.95